Prundu, Romania
Current Conditions -  °F | °C
As of 3:30 PM on Thursday 23 Oct 2014 (Local Time) from LRBS Reporting Station
Rain Showers Rain Showers  
Wind Chill: 59°   Ceiling: 1200
Heat Index: 59°   Visibility: 1.8mi
Dew Point: 57°   Wind: 13mph
Humidity: 94%   Direction: 50°NE
Pressure: 29.59"   Gusts: NA
Location:  44.1°N, 26.23°E
Report Text: LRBS 231230Z 05011KT 3000 -SHRA BR SCT005 BKN012 SCT040CB15/14 Q1002 R07/29//95 NOSIG
Loading
Personal Weather Stations






























Interactive Weather Map
Tropical Storm Tracking
New forecast layout! Learn more

10-Day Weather Forecast

Advertisements
Track Severe Weather on mobile